sensor_id;sensor_type;location;lat;lon;timestamp;P1;durP1;ratioP1;P2;durP2;ratioP2
44816;SDS011;30529;53.570;9.964;2022-10-15T00:00:14;12.23;;;9.17;;
44816;SDS011;30529;53.570;9.964;2022-10-15T00:02:40;15.70;;;8.87;;
44816;SDS011;30529;53.570;9.964;2022-10-15T00:05:06;12.60;;;9.57;;
44816;SDS011;30529;53.570;9.964;2022-10-15T00:07:33;13.43;;;9.93;;
44816;SDS011;30529;53.570;9.964;2022-10-15T00:09:59;13.93;;;9.33;;
44816;SDS011;30529;53.570;9.964;2022-10-15T00:12:25;13.17;;;8.97;;
44816;SDS011;30529;53.570;9.964;2022-10-15T00:14:51;10.63;;;8.67;;
44816;SDS011;30529;53.570;9.964;2022-10-15T00:17:18;13.03;;;10.30;;
44816;SDS011;30529;53.570;9.964;2022-10-15T00:19:44;12.57;;;10.00;;
44816;SDS011;30529;53.570;9.964;2022-10-15T00:22:10;13.40;;;9.30;;
44816;SDS011;30529;53.570;9.964;2022-10-15T00:24:37;15.97;;;9.57;;
44816;SDS011;30529;53.570;9.964;2022-10-15T00:27:03;12.93;;;9.67;;
44816;SDS011;30529;53.570;9.964;2022-10-15T00:29:29;14.20;;;10.47;;
44816;SDS011;30529;53.570;9.964;2022-10-15T00:31:55;12.10;;;9.50;;
44816;SDS011;30529;53.570;9.964;2022-10-15T00:34:21;13.63;;;10.47;;
44816;SDS011;30529;53.570;9.964;2022-10-15T00:36:48;15.30;;;10.53;;
44816;SDS011;30529;53.570;9.964;2022-10-15T00:39:19;13.43;;;10.50;;
44816;SDS011;30529;53.570;9.964;2022-10-15T00:41:49;13.97;;;10.40;;
44816;SDS011;30529;53.570;9.964;2022-10-15T00:47:03;13.57;;;9.67;;
44816;SDS011;30529;53.570;9.964;2022-10-15T00:49:44;13.00;;;9.97;;
44816;SDS011;30529;53.570;9.964;2022-10-15T00:52:25;13.93;;;10.90;;
44816;SDS011;30529;53.570;9.964;2022-10-15T00:55:00;16.27;;;11.60;;
44816;SDS011;30529;53.570;9.964;2022-10-15T00:57:39;16.27;;;11.10;;
44816;SDS011;30529;53.570;9.964;2022-10-15T01:00:10;17.47;;;10.50;;
44816;SDS011;30529;53.570;9.964;2022-10-15T01:02:40;15.07;;;11.53;;
44816;SDS011;30529;53.570;9.964;2022-10-15T01:05:07;15.67;;;11.37;;
44816;SDS011;30529;53.570;9.964;2022-10-15T01:07:34;14.50;;;10.53;;
44816;SDS011;30529;53.570;9.964;2022-10-15T01:10:00;15.50;;;11.17;;
44816;SDS011;30529;53.570;9.964;2022-10-15T01:12:37;15.97;;;11.93;;
44816;SDS011;30529;53.570;9.964;2022-10-15T01:18:17;15.17;;;12.03;;
44816;SDS011;30529;53.570;9.964;2022-10-15T01:20:50;20.50;;;14.33;;
44816;SDS011;30529;53.570;9.964;2022-10-15T01:26:57;16.63;;;12.57;;
44816;SDS011;30529;53.570;9.964;2022-10-15T01:40:52;17.37;;;13.87;;
44816;SDS011;30529;53.570;9.964;2022-10-15T01:43:32;17.73;;;14.83;;
44816;SDS011;30529;53.570;9.964;2022-10-15T01:46:05;18.60;;;14.47;;
44816;SDS011;30529;53.570;9.964;2022-10-15T01:48:39;21.87;;;16.30;;
44816;SDS011;30529;53.570;9.964;2022-10-15T01:51:06;19.27;;;15.17;;
44816;SDS011;30529;53.570;9.964;2022-10-15T01:53:35;21.97;;;15.70;;
44816;SDS011;30529;53.570;9.964;2022-10-15T01:56:04;19.97;;;15.83;;
44816;SDS011;30529;53.570;9.964;2022-10-15T01:58:35;21.57;;;15.20;;
44816;SDS011;30529;53.570;9.964;2022-10-15T02:01:04;18.37;;;14.93;;
44816;SDS011;30529;53.570;9.964;2022-10-15T02:03:31;18.90;;;15.40;;
44816;SDS011;30529;53.570;9.964;2022-10-15T02:06:05;20.40;;;14.80;;
44816;SDS011;30529;53.570;9.964;2022-10-15T02:08:39;20.23;;;15.90;;
44816;SDS011;30529;53.570;9.964;2022-10-15T02:11:14;22.57;;;17.23;;
44816;SDS011;30529;53.570;9.964;2022-10-15T02:16:24;20.57;;;16.63;;
44816;SDS011;30529;53.570;9.964;2022-10-15T02:19:06;21.60;;;15.83;;
44816;SDS011;30529;53.570;9.964;2022-10-15T02:21:47;18.50;;;15.33;;
44816;SDS011;30529;53.570;9.964;2022-10-15T02:24:19;19.77;;;15.80;;
44816;SDS011;30529;53.570;9.964;2022-10-15T02:26:54;20.70;;;15.73;;
44816;SDS011;30529;53.570;9.964;2022-10-15T02:29:24;20.67;;;15.57;;
44816;SDS011;30529;53.570;9.964;2022-10-15T02:31:54;23.53;;;16.83;;
44816;SDS011;30529;53.570;9.964;2022-10-15T02:34:24;24.13;;;16.63;;
44816;SDS011;30529;53.570;9.964;2022-10-15T02:36:52;20.53;;;16.13;;
44816;SDS011;30529;53.570;9.964;2022-10-15T02:39:22;22.47;;;15.60;;
44816;SDS011;30529;53.570;9.964;2022-10-15T02:41:49;24.20;;;16.80;;
44816;SDS011;30529;53.570;9.964;2022-10-15T02:44:16;22.23;;;15.53;;
44816;SDS011;30529;53.570;9.964;2022-10-15T02:46:42;21.83;;;16.07;;
44816;SDS011;30529;53.570;9.964;2022-10-15T02:49:08;22.37;;;16.20;;
44816;SDS011;30529;53.570;9.964;2022-10-15T02:51:34;21.37;;;16.30;;
44816;SDS011;30529;53.570;9.964;2022-10-15T02:54:01;21.50;;;15.03;;
44816;SDS011;30529;53.570;9.964;2022-10-15T02:56:28;19.90;;;15.10;;
44816;SDS011;30529;53.570;9.964;2022-10-15T02:58:55;20.07;;;14.93;;
44816;SDS011;30529;53.570;9.964;2022-10-15T03:01:21;19.70;;;14.67;;
44816;SDS011;30529;53.570;9.964;2022-10-15T03:03:47;20.10;;;14.43;;
44816;SDS011;30529;53.570;9.964;2022-10-15T03:06:13;18.93;;;13.77;;
44816;SDS011;30529;53.570;9.964;2022-10-15T03:08:40;18.50;;;13.27;;
44816;SDS011;30529;53.570;9.964;2022-10-15T03:11:07;16.40;;;13.07;;
44816;SDS011;30529;53.570;9.964;2022-10-15T03:13:37;18.67;;;13.57;;
44816;SDS011;30529;53.570;9.964;2022-10-15T03:16:04;17.93;;;12.43;;
44816;SDS011;30529;53.570;9.964;2022-10-15T03:18:31;20.30;;;12.33;;
44816;SDS011;30529;53.570;9.964;2022-10-15T03:20:58;18.77;;;11.80;;
44816;SDS011;30529;53.570;9.964;2022-10-15T03:23:25;17.57;;;12.20;;
44816;SDS011;30529;53.570;9.964;2022-10-15T03:25:51;15.57;;;12.13;;
44816;SDS011;30529;53.570;9.964;2022-10-15T03:28:18;18.70;;;12.90;;
44816;SDS011;30529;53.570;9.964;2022-10-15T03:30:45;19.60;;;12.37;;
44816;SDS011;30529;53.570;9.964;2022-10-15T03:33:11;18.00;;;13.27;;
44816;SDS011;30529;53.570;9.964;2022-10-15T03:35:38;18.47;;;12.73;;
44816;SDS011;30529;53.570;9.964;2022-10-15T03:38:04;19.07;;;12.53;;
44816;SDS011;30529;53.570;9.964;2022-10-15T03:40:32;17.50;;;13.03;;
44816;SDS011;30529;53.570;9.964;2022-10-15T03:42:59;21.77;;;13.43;;
44816;SDS011;30529;53.570;9.964;2022-10-15T03:45:25;21.43;;;13.57;;
44816;SDS011;30529;53.570;9.964;2022-10-15T03:47:51;23.03;;;14.80;;
44816;SDS011;30529;53.570;9.964;2022-10-15T03:50:18;23.13;;;13.83;;
44816;SDS011;30529;53.570;9.964;2022-10-15T03:52:44;19.87;;;14.23;;
44816;SDS011;30529;53.570;9.964;2022-10-15T03:55:10;21.40;;;13.57;;
44816;SDS011;30529;53.570;9.964;2022-10-15T03:57:41;21.97;;;14.57;;
44816;SDS011;30529;53.570;9.964;2022-10-15T04:00:07;20.60;;;14.00;;
44816;SDS011;30529;53.570;9.964;2022-10-15T04:02:37;24.17;;;14.03;;
44816;SDS011;30529;53.570;9.964;2022-10-15T04:05:04;22.83;;;14.40;;
44816;SDS011;30529;53.570;9.964;2022-10-15T04:07:30;23.27;;;14.10;;
44816;SDS011;30529;53.570;9.964;2022-10-15T04:09:56;25.80;;;15.17;;
44816;SDS011;30529;53.570;9.964;2022-10-15T04:12:22;20.77;;;14.50;;
44816;SDS011;30529;53.570;9.964;2022-10-15T04:14:49;20.87;;;14.43;;
44816;SDS011;30529;53.570;9.964;2022-10-15T04:17:15;20.47;;;14.63;;
44816;SDS011;30529;53.570;9.964;2022-10-15T04:19:41;27.57;;;15.67;;
44816;SDS011;30529;53.570;9.964;2022-10-15T04:22:07;23.43;;;14.93;;
44816;SDS011;30529;53.570;9.964;2022-10-15T04:24:33;25.90;;;16.13;;
44816;SDS011;30529;53.570;9.964;2022-10-15T04:26:59;25.70;;;15.23;;
44816;SDS011;30529;53.570;9.964;2022-10-15T04:29:25;25.93;;;15.37;;
44816;SDS011;30529;53.570;9.964;2022-10-15T04:31:51;24.87;;;16.00;;
44816;SDS011;30529;53.570;9.964;2022-10-15T04:34:17;29.13;;;16.80;;
44816;SDS011;30529;53.570;9.964;2022-10-15T04:36:43;25.97;;;15.53;;
44816;SDS011;30529;53.570;9.964;2022-10-15T04:39:12;25.10;;;15.73;;
44816;SDS011;30529;53.570;9.964;2022-10-15T04:41:38;27.93;;;17.10;;
44816;SDS011;30529;53.570;9.964;2022-10-15T04:44:04;26.57;;;15.60;;
44816;SDS011;30529;53.570;9.964;2022-10-15T04:46:30;28.03;;;17.00;;
44816;SDS011;30529;53.570;9.964;2022-10-15T04:48:57;25.87;;;16.23;;
44816;SDS011;30529;53.570;9.964;2022-10-15T04:51:24;32.60;;;19.07;;
44816;SDS011;30529;53.570;9.964;2022-10-15T04:53:51;28.60;;;18.63;;
44816;SDS011;30529;53.570;9.964;2022-10-15T04:56:18;35.03;;;18.63;;
44816;SDS011;30529;53.570;9.964;2022-10-15T04:58:46;36.03;;;19.07;;
44816;SDS011;30529;53.570;9.964;2022-10-15T05:01:17;35.00;;;20.03;;
44816;SDS011;30529;53.570;9.964;2022-10-15T05:03:45;34.73;;;19.50;;
44816;SDS011;30529;53.570;9.964;2022-10-15T05:06:14;28.97;;;18.30;;
44816;SDS011;30529;53.570;9.964;2022-10-15T05:08:42;32.53;;;19.10;;
44816;SDS011;30529;53.570;9.964;2022-10-15T05:11:10;38.07;;;19.27;;
44816;SDS011;30529;53.570;9.964;2022-10-15T05:13:41;31.00;;;18.37;;
44816;SDS011;30529;53.570;9.964;2022-10-15T05:16:12;30.03;;;19.00;;
44816;SDS011;30529;53.570;9.964;2022-10-15T05:18:41;37.07;;;20.00;;
44816;SDS011;30529;53.570;9.964;2022-10-15T05:21:08;35.33;;;19.33;;
44816;SDS011;30529;53.570;9.964;2022-10-15T05:23:35;33.97;;;19.10;;
44816;SDS011;30529;53.570;9.964;2022-10-15T05:26:05;31.93;;;18.53;;
44816;SDS011;30529;53.570;9.964;2022-10-15T05:28:33;32.37;;;19.10;;
44816;SDS011;30529;53.570;9.964;2022-10-15T05:31:06;33.57;;;19.17;;
44816;SDS011;30529;53.570;9.964;2022-10-15T05:33:34;30.17;;;18.83;;
44816;SDS011;30529;53.570;9.964;2022-10-15T05:36:14;32.43;;;19.57;;
44816;SDS011;30529;53.570;9.964;2022-10-15T05:38:52;32.87;;;18.40;;
44816;SDS011;30529;53.570;9.964;2022-10-15T05:41:22;35.23;;;19.63;;
44816;SDS011;30529;53.570;9.964;2022-10-15T05:43:50;33.83;;;19.83;;
44816;SDS011;30529;53.570;9.964;2022-10-15T05:46:18;33.73;;;19.40;;
44816;SDS011;30529;53.570;9.964;2022-10-15T05:48:48;32.80;;;19.47;;
44816;SDS011;30529;53.570;9.964;2022-10-15T05:51:15;38.27;;;21.67;;
44816;SDS011;30529;53.570;9.964;2022-10-15T05:53:42;35.50;;;20.77;;
44816;SDS011;30529;53.570;9.964;2022-10-15T05:56:11;37.20;;;21.40;;
44816;SDS011;30529;53.570;9.964;2022-10-15T05:58:38;36.70;;;21.03;;
44816;SDS011;30529;53.570;9.964;2022-10-15T06:01:06;32.43;;;19.77;;
44816;SDS011;30529;53.570;9.964;2022-10-15T06:03:33;36.23;;;20.90;;
44816;SDS011;30529;53.570;9.964;2022-10-15T06:06:00;37.10;;;21.73;;
44816;SDS011;30529;53.570;9.964;2022-10-15T06:08:27;35.00;;;20.63;;
44816;SDS011;30529;53.570;9.964;2022-10-15T06:10:54;40.93;;;21.67;;
44816;SDS011;30529;53.570;9.964;2022-10-15T06:13:21;34.80;;;21.20;;
44816;SDS011;30529;53.570;9.964;2022-10-15T06:15:47;35.27;;;21.20;;
44816;SDS011;30529;53.570;9.964;2022-10-15T06:18:13;33.70;;;20.00;;
44816;SDS011;30529;53.570;9.964;2022-10-15T06:20:44;35.57;;;21.37;;
44816;SDS011;30529;53.570;9.964;2022-10-15T06:23:15;33.40;;;20.50;;
44816;SDS011;30529;53.570;9.964;2022-10-15T06:25:42;35.50;;;21.00;;
44816;SDS011;30529;53.570;9.964;2022-10-15T06:28:08;37.27;;;20.97;;
44816;SDS011;30529;53.570;9.964;2022-10-15T06:30:34;37.00;;;21.70;;
44816;SDS011;30529;53.570;9.964;2022-10-15T06:33:01;36.10;;;20.83;;
44816;SDS011;30529;53.570;9.964;2022-10-15T06:35:28;34.70;;;21.17;;
44816;SDS011;30529;53.570;9.964;2022-10-15T06:38:03;44.13;;;21.97;;
44816;SDS011;30529;53.570;9.964;2022-10-15T06:40:30;35.77;;;20.80;;
44816;SDS011;30529;53.570;9.964;2022-10-15T06:43:07;32.80;;;20.43;;
44816;SDS011;30529;53.570;9.964;2022-10-15T06:45:35;31.63;;;20.17;;
44816;SDS011;30529;53.570;9.964;2022-10-15T06:48:04;39.17;;;21.97;;
44816;SDS011;30529;53.570;9.964;2022-10-15T06:50:31;34.80;;;20.90;;
44816;SDS011;30529;53.570;9.964;2022-10-15T06:53:02;37.07;;;20.77;;
44816;SDS011;30529;53.570;9.964;2022-10-15T06:55:28;34.53;;;20.50;;
44816;SDS011;30529;53.570;9.964;2022-10-15T06:57:55;33.87;;;19.97;;
44816;SDS011;30529;53.570;9.964;2022-10-15T07:00:24;34.63;;;20.77;;
44816;SDS011;30529;53.570;9.964;2022-10-15T07:02:51;38.27;;;20.90;;
44816;SDS011;30529;53.570;9.964;2022-10-15T07:05:18;30.50;;;18.43;;
44816;SDS011;30529;53.570;9.964;2022-10-15T07:07:54;34.63;;;20.60;;
44816;SDS011;30529;53.570;9.964;2022-10-15T07:10:22;34.67;;;20.27;;
44816;SDS011;30529;53.570;9.964;2022-10-15T07:12:49;33.67;;;19.37;;
44816;SDS011;30529;53.570;9.964;2022-10-15T07:15:16;33.63;;;19.43;;
44816;SDS011;30529;53.570;9.964;2022-10-15T07:17:45;34.53;;;19.97;;
44816;SDS011;30529;53.570;9.964;2022-10-15T07:20:15;31.73;;;18.87;;
44816;SDS011;30529;53.570;9.964;2022-10-15T07:22:42;32.80;;;19.80;;
44816;SDS011;30529;53.570;9.964;2022-10-15T07:25:08;31.57;;;18.73;;
44816;SDS011;30529;53.570;9.964;2022-10-15T07:27:35;35.40;;;19.97;;
44816;SDS011;30529;53.570;9.964;2022-10-15T07:30:03;36.90;;;20.03;;
44816;SDS011;30529;53.570;9.964;2022-10-15T07:32:30;31.93;;;18.47;;
44816;SDS011;30529;53.570;9.964;2022-10-15T07:34:56;30.00;;;18.23;;
44816;SDS011;30529;53.570;9.964;2022-10-15T07:37:22;30.37;;;19.27;;
44816;SDS011;30529;53.570;9.964;2022-10-15T07:39:48;30.40;;;18.87;;
44816;SDS011;30529;53.570;9.964;2022-10-15T07:42:14;31.40;;;18.60;;
44816;SDS011;30529;53.570;9.964;2022-10-15T07:44:40;36.37;;;20.10;;
44816;SDS011;30529;53.570;9.964;2022-10-15T07:47:06;32.63;;;17.53;;
44816;SDS011;30529;53.570;9.964;2022-10-15T07:49:32;30.87;;;18.33;;
44816;SDS011;30529;53.570;9.964;2022-10-15T07:51:58;31.80;;;18.67;;
44816;SDS011;30529;53.570;9.964;2022-10-15T07:54:24;31.77;;;17.80;;
44816;SDS011;30529;53.570;9.964;2022-10-15T07:56:50;31.50;;;17.60;;
44816;SDS011;30529;53.570;9.964;2022-10-15T07:59:16;30.93;;;18.70;;
44816;SDS011;30529;53.570;9.964;2022-10-15T08:01:42;30.93;;;19.00;;
44816;SDS011;30529;53.570;9.964;2022-10-15T08:04:09;31.33;;;18.97;;
44816;SDS011;30529;53.570;9.964;2022-10-15T08:06:35;28.30;;;17.10;;
44816;SDS011;30529;53.570;9.964;2022-10-15T08:09:03;30.20;;;18.77;;
44816;SDS011;30529;53.570;9.964;2022-10-15T08:11:29;27.50;;;17.87;;
44816;SDS011;30529;53.570;9.964;2022-10-15T08:13:55;29.70;;;18.10;;
44816;SDS011;30529;53.570;9.964;2022-10-15T08:16:22;24.83;;;16.50;;
44816;SDS011;30529;53.570;9.964;2022-10-15T08:18:48;31.60;;;17.80;;
44816;SDS011;30529;53.570;9.964;2022-10-15T08:21:14;33.53;;;18.10;;
44816;SDS011;30529;53.570;9.964;2022-10-15T08:23:41;29.70;;;17.97;;
44816;SDS011;30529;53.570;9.964;2022-10-15T08:26:07;30.63;;;16.93;;
44816;SDS011;30529;53.570;9.964;2022-10-15T08:28:34;25.97;;;16.37;;
44816;SDS011;30529;53.570;9.964;2022-10-15T08:31:01;28.93;;;16.00;;
44816;SDS011;30529;53.570;9.964;2022-10-15T08:33:28;26.43;;;15.93;;
44816;SDS011;30529;53.570;9.964;2022-10-15T08:35:54;30.73;;;19.97;;
44816;SDS011;30529;53.570;9.964;2022-10-15T08:38:20;24.33;;;16.00;;
44816;SDS011;30529;53.570;9.964;2022-10-15T08:40:56;27.43;;;16.73;;
44816;SDS011;30529;53.570;9.964;2022-10-15T08:43:28;25.70;;;16.77;;
44816;SDS011;30529;53.570;9.964;2022-10-15T08:45:56;26.30;;;16.23;;
44816;SDS011;30529;53.570;9.964;2022-10-15T08:48:27;25.20;;;15.90;;
44816;SDS011;30529;53.570;9.964;2022-10-15T08:51:03;23.60;;;14.27;;
44816;SDS011;30529;53.570;9.964;2022-10-15T08:53:52;25.03;;;14.70;;
44816;SDS011;30529;53.570;9.964;2022-10-15T09:07:23;23.53;;;15.23;;
44816;SDS011;30529;53.570;9.964;2022-10-15T09:15:23;28.00;;;16.30;;
44816;SDS011;30529;53.570;9.964;2022-10-15T09:17:51;26.57;;;14.57;;
44816;SDS011;30529;53.570;9.964;2022-10-15T09:20:24;26.70;;;14.13;;
44816;SDS011;30529;53.570;9.964;2022-10-15T09:22:56;26.27;;;15.73;;
44816;SDS011;30529;53.570;9.964;2022-10-15T09:25:23;23.67;;;14.20;;
44816;SDS011;30529;53.570;9.964;2022-10-15T09:27:50;26.70;;;14.83;;
44816;SDS011;30529;53.570;9.964;2022-10-15T09:31:18;21.40;;;13.23;;
44816;SDS011;30529;53.570;9.964;2022-10-15T09:33:53;18.97;;;12.73;;
44816;SDS011;30529;53.570;9.964;2022-10-15T09:44:56;23.70;;;13.00;;
44816;SDS011;30529;53.570;9.964;2022-10-15T09:47:28;19.93;;;12.40;;
44816;SDS011;30529;53.570;9.964;2022-10-15T09:49:55;17.43;;;11.23;;
44816;SDS011;30529;53.570;9.964;2022-10-15T09:52:29;19.47;;;11.67;;
44816;SDS011;30529;53.570;9.964;2022-10-15T09:57:52;19.50;;;11.60;;
44816;SDS011;30529;53.570;9.964;2022-10-15T10:00:21;18.57;;;11.13;;
44816;SDS011;30529;53.570;9.964;2022-10-15T10:03:03;19.90;;;11.23;;
44816;SDS011;30529;53.570;9.964;2022-10-15T10:05:34;19.50;;;12.10;;
44816;SDS011;30529;53.570;9.964;2022-10-15T10:10:35;17.73;;;11.63;;
44816;SDS011;30529;53.570;9.964;2022-10-15T10:13:04;21.93;;;11.23;;
44816;SDS011;30529;53.570;9.964;2022-10-15T10:15:44;18.13;;;11.77;;
44816;SDS011;30529;53.570;9.964;2022-10-15T10:18:17;16.50;;;10.40;;
44816;SDS011;30529;53.570;9.964;2022-10-15T10:20:51;20.37;;;12.03;;
44816;SDS011;30529;53.570;9.964;2022-10-15T10:23:45;15.63;;;10.10;;
44816;SDS011;30529;53.570;9.964;2022-10-15T10:26:11;17.53;;;10.30;;
44816;SDS011;30529;53.570;9.964;2022-10-15T10:28:40;14.93;;;9.77;;
44816;SDS011;30529;53.570;9.964;2022-10-15T10:31:09;17.13;;;10.60;;
44816;SDS011;30529;53.570;9.964;2022-10-15T10:33:43;18.00;;;11.07;;
44816;SDS011;30529;53.570;9.964;2022-10-15T10:36:19;19.63;;;11.03;;
44816;SDS011;30529;53.570;9.964;2022-10-15T10:38:54;17.07;;;10.17;;
44816;SDS011;30529;53.570;9.964;2022-10-15T10:41:58;16.10;;;10.27;;
44816;SDS011;30529;53.570;9.964;2022-10-15T10:44:26;13.07;;;8.30;;
44816;SDS011;30529;53.570;9.964;2022-10-15T10:49:44;17.00;;;8.97;;
44816;SDS011;30529;53.570;9.964;2022-10-15T10:52:19;14.73;;;8.13;;
44816;SDS011;30529;53.570;9.964;2022-10-15T10:54:50;12.13;;;8.20;;
44816;SDS011;30529;53.570;9.964;2022-10-15T10:57:43;17.27;;;8.53;;
44816;SDS011;30529;53.570;9.964;2022-10-15T11:00:20;16.17;;;8.60;;
44816;SDS011;30529;53.570;9.964;2022-10-15T11:03:03;12.23;;;7.93;;
44816;SDS011;30529;53.570;9.964;2022-10-15T11:05:32;13.70;;;8.60;;
44816;SDS011;30529;53.570;9.964;2022-10-15T11:10:31;15.53;;;8.00;;
44816;SDS011;30529;53.570;9.964;2022-10-15T11:13:07;12.20;;;8.30;;
44816;SDS011;30529;53.570;9.964;2022-10-15T11:15:59;13.87;;;7.80;;
44816;SDS011;30529;53.570;9.964;2022-10-15T11:29:58;9.80;;;5.17;;
44816;SDS011;30529;53.570;9.964;2022-10-15T11:32:55;8.77;;;4.63;;
44816;SDS011;30529;53.570;9.964;2022-10-15T11:39:35;6.30;;;4.07;;
44816;SDS011;30529;53.570;9.964;2022-10-15T11:44:58;8.13;;;4.27;;
44816;SDS011;30529;53.570;9.964;2022-10-15T11:52:58;8.20;;;3.77;;
44816;SDS011;30529;53.570;9.964;2022-10-15T11:55:43;10.47;;;3.30;;
44816;SDS011;30529;53.570;9.964;2022-10-15T11:58:33;5.20;;;2.90;;
44816;SDS011;30529;53.570;9.964;2022-10-15T12:01:02;6.33;;;3.20;;
44816;SDS011;30529;53.570;9.964;2022-10-15T12:03:34;6.13;;;2.70;;
44816;SDS011;30529;53.570;9.964;2022-10-15T12:06:08;4.23;;;2.47;;
44816;SDS011;30529;53.570;9.964;2022-10-15T12:08:40;5.30;;;2.90;;
44816;SDS011;30529;53.570;9.964;2022-10-15T12:14:01;4.23;;;2.60;;
44816;SDS011;30529;53.570;9.964;2022-10-15T12:22:06;6.23;;;3.27;;
44816;SDS011;30529;53.570;9.964;2022-10-15T12:29:51;4.97;;;3.07;;
44816;SDS011;30529;53.570;9.964;2022-10-15T12:35:29;5.70;;;3.37;;
44816;SDS011;30529;53.570;9.964;2022-10-15T12:40:53;5.70;;;3.53;;
44816;SDS011;30529;53.570;9.964;2022-10-15T12:43:26;6.80;;;3.80;;
44816;SDS011;30529;53.570;9.964;2022-10-15T12:45:55;5.23;;;3.30;;
44816;SDS011;30529;53.570;9.964;2022-10-15T12:48:31;4.60;;;3.00;;
44816;SDS011;30529;53.570;9.964;2022-10-15T12:53:50;9.43;;;3.60;;
44816;SDS011;30529;53.570;9.964;2022-10-15T12:56:22;6.47;;;3.40;;
44816;SDS011;30529;53.570;9.964;2022-10-15T12:58:53;7.77;;;4.07;;
44816;SDS011;30529;53.570;9.964;2022-10-15T13:08:48;5.70;;;3.40;;
44816;SDS011;30529;53.570;9.964;2022-10-15T13:11:31;7.37;;;3.77;;
44816;SDS011;30529;53.570;9.964;2022-10-15T13:16:50;9.47;;;4.17;;
44816;SDS011;30529;53.570;9.964;2022-10-15T13:21:57;6.53;;;4.37;;
44816;SDS011;30529;53.570;9.964;2022-10-15T13:24:25;10.83;;;4.70;;
44816;SDS011;30529;53.570;9.964;2022-10-15T13:26:53;5.70;;;4.07;;
44816;SDS011;30529;53.570;9.964;2022-10-15T13:29:21;6.97;;;4.20;;
44816;SDS011;30529;53.570;9.964;2022-10-15T13:31:50;6.73;;;4.17;;
44816;SDS011;30529;53.570;9.964;2022-10-15T13:34:29;7.73;;;5.13;;
44816;SDS011;30529;53.570;9.964;2022-10-15T13:37:01;6.83;;;4.73;;
44816;SDS011;30529;53.570;9.964;2022-10-15T13:39:32;7.43;;;4.47;;
44816;SDS011;30529;53.570;9.964;2022-10-15T13:42:04;7.97;;;5.10;;
44816;SDS011;30529;53.570;9.964;2022-10-15T13:44:40;8.57;;;5.40;;
44816;SDS011;30529;53.570;9.964;2022-10-15T13:47:28;8.20;;;5.47;;
44816;SDS011;30529;53.570;9.964;2022-10-15T13:52:46;9.07;;;5.27;;
44816;SDS011;30529;53.570;9.964;2022-10-15T13:55:17;6.83;;;5.37;;
44816;SDS011;30529;53.570;9.964;2022-10-15T13:57:46;10.40;;;6.27;;
44816;SDS011;30529;53.570;9.964;2022-10-15T14:00:24;8.23;;;5.80;;
44816;SDS011;30529;53.570;9.964;2022-10-15T14:06:08;10.63;;;5.63;;
44816;SDS011;30529;53.570;9.964;2022-10-15T14:08:43;8.63;;;5.80;;
44816;SDS011;30529;53.570;9.964;2022-10-15T14:11:10;7.63;;;5.60;;
44816;SDS011;30529;53.570;9.964;2022-10-15T14:13:48;10.10;;;7.03;;
44816;SDS011;30529;53.570;9.964;2022-10-15T14:16:20;14.23;;;9.37;;
44816;SDS011;30529;53.570;9.964;2022-10-15T14:18:54;13.17;;;9.27;;
44816;SDS011;30529;53.570;9.964;2022-10-15T14:21:23;12.47;;;9.20;;
44816;SDS011;30529;53.570;9.964;2022-10-15T14:26:45;11.93;;;8.53;;
44816;SDS011;30529;53.570;9.964;2022-10-15T14:29:15;11.70;;;9.03;;
44816;SDS011;30529;53.570;9.964;2022-10-15T14:31:50;12.47;;;8.00;;
44816;SDS011;30529;53.570;9.964;2022-10-15T14:37:00;11.97;;;8.40;;
44816;SDS011;30529;53.570;9.964;2022-10-15T14:41:58;12.73;;;8.60;;
44816;SDS011;30529;53.570;9.964;2022-10-15T14:44:47;12.73;;;8.73;;
44816;SDS011;30529;53.570;9.964;2022-10-15T14:47:19;12.00;;;8.63;;
44816;SDS011;30529;53.570;9.964;2022-10-15T14:49:51;15.03;;;10.33;;
44816;SDS011;30529;53.570;9.964;2022-10-15T14:52:20;14.57;;;10.10;;
44816;SDS011;30529;53.570;9.964;2022-10-15T14:55:06;14.00;;;9.67;;
44816;SDS011;30529;53.570;9.964;2022-10-15T14:57:39;17.13;;;13.33;;
44816;SDS011;30529;53.570;9.964;2022-10-15T15:00:43;16.30;;;11.17;;
44816;SDS011;30529;53.570;9.964;2022-10-15T15:03:06;16.73;;;10.80;;
44816;SDS011;30529;53.570;9.964;2022-10-15T15:05:42;14.43;;;11.63;;
44816;SDS011;30529;53.570;9.964;2022-10-15T15:08:11;12.43;;;9.03;;
44816;SDS011;30529;53.570;9.964;2022-10-15T15:10:37;15.97;;;10.53;;
44816;SDS011;30529;53.570;9.964;2022-10-15T15:13:03;14.47;;;11.40;;
44816;SDS011;30529;53.570;9.964;2022-10-15T15:15:29;13.67;;;9.67;;
44816;SDS011;30529;53.570;9.964;2022-10-15T15:17:55;13.23;;;9.73;;
44816;SDS011;30529;53.570;9.964;2022-10-15T15:20:22;14.03;;;9.43;;
44816;SDS011;30529;53.570;9.964;2022-10-15T15:22:51;13.57;;;9.77;;
44816;SDS011;30529;53.570;9.964;2022-10-15T15:25:20;12.97;;;9.63;;
44816;SDS011;30529;53.570;9.964;2022-10-15T15:27:55;11.90;;;9.30;;
44816;SDS011;30529;53.570;9.964;2022-10-15T15:30:22;12.30;;;9.73;;
44816;SDS011;30529;53.570;9.964;2022-10-15T15:32:51;14.53;;;9.53;;
44816;SDS011;30529;53.570;9.964;2022-10-15T15:35:35;10.27;;;8.93;;
44816;SDS011;30529;53.570;9.964;2022-10-15T15:38:23;12.23;;;9.80;;
44816;SDS011;30529;53.570;9.964;2022-10-15T15:43:41;14.00;;;9.87;;
44816;SDS011;30529;53.570;9.964;2022-10-15T15:46:07;10.93;;;9.27;;
44816;SDS011;30529;53.570;9.964;2022-10-15T15:48:34;13.43;;;9.30;;
44816;SDS011;30529;53.570;9.964;2022-10-15T15:51:02;10.10;;;8.70;;
44816;SDS011;30529;53.570;9.964;2022-10-15T15:53:30;11.37;;;9.67;;
44816;SDS011;30529;53.570;9.964;2022-10-15T15:55:57;14.97;;;10.43;;
44816;SDS011;30529;53.570;9.964;2022-10-15T15:58:23;12.43;;;10.00;;
44816;SDS011;30529;53.570;9.964;2022-10-15T16:00:49;10.63;;;8.93;;
44816;SDS011;30529;53.570;9.964;2022-10-15T16:03:16;13.97;;;9.10;;
44816;SDS011;30529;53.570;9.964;2022-10-15T16:05:42;14.10;;;10.10;;
44816;SDS011;30529;53.570;9.964;2022-10-15T16:08:09;12.07;;;9.57;;
44816;SDS011;30529;53.570;9.964;2022-10-15T16:10:35;11.60;;;9.17;;
44816;SDS011;30529;53.570;9.964;2022-10-15T16:13:01;15.20;;;9.40;;
44816;SDS011;30529;53.570;9.964;2022-10-15T16:15:28;11.80;;;9.87;;
44816;SDS011;30529;53.570;9.964;2022-10-15T16:17:54;11.77;;;9.13;;
44816;SDS011;30529;53.570;9.964;2022-10-15T16:20:20;11.40;;;9.23;;
44816;SDS011;30529;53.570;9.964;2022-10-15T16:22:50;12.53;;;9.57;;
44816;SDS011;30529;53.570;9.964;2022-10-15T16:25:17;13.97;;;9.83;;
44816;SDS011;30529;53.570;9.964;2022-10-15T16:27:44;12.40;;;9.90;;
44816;SDS011;30529;53.570;9.964;2022-10-15T16:30:13;11.93;;;9.40;;
44816;SDS011;30529;53.570;9.964;2022-10-15T16:32:40;10.27;;;9.17;;
44816;SDS011;30529;53.570;9.964;2022-10-15T16:35:07;14.87;;;9.57;;
44816;SDS011;30529;53.570;9.964;2022-10-15T16:37:33;13.43;;;9.67;;
44816;SDS011;30529;53.570;9.964;2022-10-15T16:39:59;11.63;;;8.80;;
44816;SDS011;30529;53.570;9.964;2022-10-15T16:42:35;10.47;;;8.87;;
44816;SDS011;30529;53.570;9.964;2022-10-15T16:45:02;11.33;;;9.27;;
44816;SDS011;30529;53.570;9.964;2022-10-15T16:47:28;13.60;;;10.27;;
44816;SDS011;30529;53.570;9.964;2022-10-15T16:49:54;15.93;;;11.33;;
44816;SDS011;30529;53.570;9.964;2022-10-15T16:52:21;18.50;;;12.50;;
44816;SDS011;30529;53.570;9.964;2022-10-15T16:54:46;12.67;;;9.90;;
44816;SDS011;30529;53.570;9.964;2022-10-15T16:57:12;11.70;;;9.57;;
44816;SDS011;30529;53.570;9.964;2022-10-15T16:59:39;12.93;;;9.53;;